sensor_id;sensor_type;location;lat;lon;timestamp;P1;durP1;ratioP1;P2;durP2;ratioP2
35648;SDS011;21768;48.562;13.414;2024-02-26T00:01:40;45.88;;;8.95;;
35648;SDS011;21768;48.562;13.414;2024-02-26T00:04:05;70.85;;;9.60;;
35648;SDS011;21768;48.562;13.414;2024-02-26T00:06:31;38.00;;;9.05;;
35648;SDS011;21768;48.562;13.414;2024-02-26T00:08:57;40.78;;;9.85;;
35648;SDS011;21768;48.562;13.414;2024-02-26T00:11:24;60.85;;;10.25;;
35648;SDS011;21768;48.562;13.414;2024-02-26T00:13:50;64.90;;;10.40;;
35648;SDS011;21768;48.562;13.414;2024-02-26T00:16:15;34.60;;;10.10;;
35648;SDS011;21768;48.562;13.414;2024-02-26T00:18:41;20.63;;;8.77;;
35648;SDS011;21768;48.562;13.414;2024-02-26T00:21:07;21.70;;;9.50;;
35648;SDS011;21768;48.562;13.414;2024-02-26T00:23:32;24.33;;;9.02;;
35648;SDS011;21768;48.562;13.414;2024-02-26T00:25:58;20.58;;;9.10;;
35648;SDS011;21768;48.562;13.414;2024-02-26T00:28:24;21.48;;;9.32;;
35648;SDS011;21768;48.562;13.414;2024-02-26T00:30:50;16.83;;;8.57;;
35648;SDS011;21768;48.562;13.414;2024-02-26T00:33:21;21.23;;;8.75;;
35648;SDS011;21768;48.562;13.414;2024-02-26T00:35:47;21.48;;;9.20;;
35648;SDS011;21768;48.562;13.414;2024-02-26T00:38:14;23.88;;;9.50;;
35648;SDS011;21768;48.562;13.414;2024-02-26T00:40:39;20.35;;;9.25;;
35648;SDS011;21768;48.562;13.414;2024-02-26T00:43:08;18.08;;;8.45;;
35648;SDS011;21768;48.562;13.414;2024-02-26T00:45:33;20.65;;;8.73;;
35648;SDS011;21768;48.562;13.414;2024-02-26T00:47:59;23.13;;;8.93;;
35648;SDS011;21768;48.562;13.414;2024-02-26T00:50:33;23.63;;;9.23;;
35648;SDS011;21768;48.562;13.414;2024-02-26T00:52:59;25.67;;;9.65;;
35648;SDS011;21768;48.562;13.414;2024-02-26T00:55:26;21.23;;;7.97;;
35648;SDS011;21768;48.562;13.414;2024-02-26T00:57:51;21.10;;;8.52;;
35648;SDS011;21768;48.562;13.414;2024-02-26T01:00:17;16.77;;;7.97;;
35648;SDS011;21768;48.562;13.414;2024-02-26T01:02:43;16.35;;;7.93;;
35648;SDS011;21768;48.562;13.414;2024-02-26T01:05:11;18.92;;;7.55;;
35648;SDS011;21768;48.562;13.414;2024-02-26T01:07:38;15.50;;;7.05;;
35648;SDS011;21768;48.562;13.414;2024-02-26T01:10:04;15.90;;;7.50;;
35648;SDS011;21768;48.562;13.414;2024-02-26T01:12:31;16.60;;;7.53;;
35648;SDS011;21768;48.562;13.414;2024-02-26T01:14:59;16.20;;;6.97;;
35648;SDS011;21768;48.562;13.414;2024-02-26T01:17:30;14.68;;;6.93;;
35648;SDS011;21768;48.562;13.414;2024-02-26T01:19:56;16.60;;;7.38;;
35648;SDS011;21768;48.562;13.414;2024-02-26T01:22:21;15.60;;;7.93;;
35648;SDS011;21768;48.562;13.414;2024-02-26T01:24:47;15.93;;;7.18;;
35648;SDS011;21768;48.562;13.414;2024-02-26T01:27:13;17.50;;;7.75;;
35648;SDS011;21768;48.562;13.414;2024-02-26T01:29:42;18.92;;;7.38;;
35648;SDS011;21768;48.562;13.414;2024-02-26T01:32:07;27.92;;;7.10;;
35648;SDS011;21768;48.562;13.414;2024-02-26T01:34:33;19.10;;;6.80;;
35648;SDS011;21768;48.562;13.414;2024-02-26T01:37:00;51.15;;;6.80;;
35648;SDS011;21768;48.562;13.414;2024-02-26T01:39:26;17.42;;;6.47;;
35648;SDS011;21768;48.562;13.414;2024-02-26T01:41:55;22.33;;;6.80;;
35648;SDS011;21768;48.562;13.414;2024-02-26T01:44:21;14.65;;;6.20;;
35648;SDS011;21768;48.562;13.414;2024-02-26T01:46:48;16.58;;;6.68;;
35648;SDS011;21768;48.562;13.414;2024-02-26T01:49:14;21.60;;;6.90;;
35648;SDS011;21768;48.562;13.414;2024-02-26T01:51:41;17.48;;;6.75;;
35648;SDS011;21768;48.562;13.414;2024-02-26T01:54:08;15.48;;;6.57;;
35648;SDS011;21768;48.562;13.414;2024-02-26T01:56:34;20.92;;;7.18;;
35648;SDS011;21768;48.562;13.414;2024-02-26T01:59:01;13.30;;;6.68;;
35648;SDS011;21768;48.562;13.414;2024-02-26T02:01:29;16.63;;;7.63;;
35648;SDS011;21768;48.562;13.414;2024-02-26T02:03:57;19.58;;;8.40;;
35648;SDS011;21768;48.562;13.414;2024-02-26T02:06:24;23.35;;;9.85;;
35648;SDS011;21768;48.562;13.414;2024-02-26T02:08:49;30.08;;;13.90;;
35648;SDS011;21768;48.562;13.414;2024-02-26T02:11:16;25.60;;;10.38;;
35648;SDS011;21768;48.562;13.414;2024-02-26T02:13:46;22.50;;;9.20;;
35648;SDS011;21768;48.562;13.414;2024-02-26T02:16:13;21.83;;;7.68;;
35648;SDS011;21768;48.562;13.414;2024-02-26T02:18:39;27.63;;;7.68;;
35648;SDS011;21768;48.562;13.414;2024-02-26T02:21:05;25.48;;;8.80;;
35648;SDS011;21768;48.562;13.414;2024-02-26T02:23:30;21.63;;;8.60;;
35648;SDS011;21768;48.562;13.414;2024-02-26T02:25:57;19.33;;;8.15;;
35648;SDS011;21768;48.562;13.414;2024-02-26T02:28:23;17.15;;;7.68;;
35648;SDS011;21768;48.562;13.414;2024-02-26T02:30:50;15.88;;;7.55;;
35648;SDS011;21768;48.562;13.414;2024-02-26T02:33:15;15.10;;;7.15;;
35648;SDS011;21768;48.562;13.414;2024-02-26T02:35:41;18.50;;;8.02;;
35648;SDS011;21768;48.562;13.414;2024-02-26T02:38:07;14.45;;;6.75;;
35648;SDS011;21768;48.562;13.414;2024-02-26T02:40:33;14.85;;;7.18;;
35648;SDS011;21768;48.562;13.414;2024-02-26T02:42:59;16.63;;;6.20;;
35648;SDS011;21768;48.562;13.414;2024-02-26T02:45:26;11.93;;;5.88;;
35648;SDS011;21768;48.562;13.414;2024-02-26T02:47:52;11.45;;;6.25;;
35648;SDS011;21768;48.562;13.414;2024-02-26T02:50:17;11.68;;;5.72;;
35648;SDS011;21768;48.562;13.414;2024-02-26T02:52:43;11.68;;;5.82;;
35648;SDS011;21768;48.562;13.414;2024-02-26T02:55:09;13.48;;;5.90;;
35648;SDS011;21768;48.562;13.414;2024-02-26T02:57:34;16.70;;;7.97;;
35648;SDS011;21768;48.562;13.414;2024-02-26T03:00:06;14.05;;;6.90;;
35648;SDS011;21768;48.562;13.414;2024-02-26T03:02:35;10.68;;;6.03;;
35648;SDS011;21768;48.562;13.414;2024-02-26T03:05:05;15.18;;;7.43;;
35648;SDS011;21768;48.562;13.414;2024-02-26T03:07:31;14.70;;;7.30;;
35648;SDS011;21768;48.562;13.414;2024-02-26T03:09:56;13.75;;;6.68;;
35648;SDS011;21768;48.562;13.414;2024-02-26T03:12:22;14.52;;;6.20;;
35648;SDS011;21768;48.562;13.414;2024-02-26T03:14:47;11.07;;;5.65;;
35648;SDS011;21768;48.562;13.414;2024-02-26T03:17:13;17.70;;;5.65;;
35648;SDS011;21768;48.562;13.414;2024-02-26T03:19:39;28.75;;;5.88;;
35648;SDS011;21768;48.562;13.414;2024-02-26T03:22:04;30.20;;;5.88;;
35648;SDS011;21768;48.562;13.414;2024-02-26T03:24:30;47.63;;;5.65;;
35648;SDS011;21768;48.562;13.414;2024-02-26T03:26:56;37.55;;;5.40;;
35648;SDS011;21768;48.562;13.414;2024-02-26T03:29:22;45.88;;;5.38;;
35648;SDS011;21768;48.562;13.414;2024-02-26T03:31:47;66.43;;;5.72;;
35648;SDS011;21768;48.562;13.414;2024-02-26T03:34:13;56.88;;;6.00;;
35648;SDS011;21768;48.562;13.414;2024-02-26T03:36:40;82.05;;;5.78;;
35648;SDS011;21768;48.562;13.414;2024-02-26T03:39:06;91.93;;;6.00;;
35648;SDS011;21768;48.562;13.414;2024-02-26T03:41:33;55.15;;;5.43;;
35648;SDS011;21768;48.562;13.414;2024-02-26T03:43:59;66.75;;;5.70;;
35648;SDS011;21768;48.562;13.414;2024-02-26T03:46:25;52.58;;;5.32;;
35648;SDS011;21768;48.562;13.414;2024-02-26T03:48:51;17.63;;;5.53;;
35648;SDS011;21768;48.562;13.414;2024-02-26T03:51:17;15.20;;;5.35;;
35648;SDS011;21768;48.562;13.414;2024-02-26T03:53:42;9.63;;;5.03;;
35648;SDS011;21768;48.562;13.414;2024-02-26T03:56:09;13.18;;;5.57;;
35648;SDS011;21768;48.562;13.414;2024-02-26T03:58:37;20.42;;;5.45;;
35648;SDS011;21768;48.562;13.414;2024-02-26T04:01:03;13.02;;;5.13;;
35648;SDS011;21768;48.562;13.414;2024-02-26T04:03:28;19.17;;;6.18;;
35648;SDS011;21768;48.562;13.414;2024-02-26T04:05:55;10.90;;;5.68;;
35648;SDS011;21768;48.562;13.414;2024-02-26T04:08:21;10.95;;;5.32;;
35648;SDS011;21768;48.562;13.414;2024-02-26T04:10:46;17.80;;;5.55;;
35648;SDS011;21768;48.562;13.414;2024-02-26T04:13:12;12.20;;;5.90;;
35648;SDS011;21768;48.562;13.414;2024-02-26T04:15:38;13.18;;;5.80;;
35648;SDS011;21768;48.562;13.414;2024-02-26T04:18:04;14.43;;;5.95;;
35648;SDS011;21768;48.562;13.414;2024-02-26T04:20:29;12.50;;;5.80;;
35648;SDS011;21768;48.562;13.414;2024-02-26T04:22:55;14.43;;;6.05;;
35648;SDS011;21768;48.562;13.414;2024-02-26T04:25:20;13.90;;;5.75;;
35648;SDS011;21768;48.562;13.414;2024-02-26T04:27:46;14.68;;;5.55;;
35648;SDS011;21768;48.562;13.414;2024-02-26T04:30:12;11.23;;;5.78;;
35648;SDS011;21768;48.562;13.414;2024-02-26T04:32:38;11.23;;;5.70;;
35648;SDS011;21768;48.562;13.414;2024-02-26T04:35:03;11.65;;;5.40;;
35648;SDS011;21768;48.562;13.414;2024-02-26T04:37:30;11.10;;;4.47;;
35648;SDS011;21768;48.562;13.414;2024-02-26T04:39:59;16.77;;;5.35;;
35648;SDS011;21768;48.562;13.414;2024-02-26T04:42:25;9.73;;;5.07;;
35648;SDS011;21768;48.562;13.414;2024-02-26T04:44:51;9.32;;;5.18;;
35648;SDS011;21768;48.562;13.414;2024-02-26T04:47:16;12.00;;;5.05;;
35648;SDS011;21768;48.562;13.414;2024-02-26T04:49:42;11.00;;;5.18;;
35648;SDS011;21768;48.562;13.414;2024-02-26T04:52:08;14.60;;;5.30;;
35648;SDS011;21768;48.562;13.414;2024-02-26T04:54:34;10.05;;;5.38;;
35648;SDS011;21768;48.562;13.414;2024-02-26T04:56:59;11.00;;;5.47;;
35648;SDS011;21768;48.562;13.414;2024-02-26T04:59:25;10.00;;;5.15;;
35648;SDS011;21768;48.562;13.414;2024-02-26T05:01:51;8.43;;;4.57;;
35648;SDS011;21768;48.562;13.414;2024-02-26T05:04:18;8.05;;;4.47;;
35648;SDS011;21768;48.562;13.414;2024-02-26T05:06:44;16.63;;;5.13;;
35648;SDS011;21768;48.562;13.414;2024-02-26T05:09:09;61.60;;;6.55;;
35648;SDS011;21768;48.562;13.414;2024-02-26T05:11:35;67.10;;;5.07;;
35648;SDS011;21768;48.562;13.414;2024-02-26T05:14:02;51.00;;;5.00;;
35648;SDS011;21768;48.562;13.414;2024-02-26T05:16:28;69.53;;;5.20;;
35648;SDS011;21768;48.562;13.414;2024-02-26T05:18:56;47.80;;;5.00;;
35648;SDS011;21768;48.562;13.414;2024-02-26T05:21:22;36.08;;;5.03;;
35648;SDS011;21768;48.562;13.414;2024-02-26T05:23:51;24.77;;;4.47;;
35648;SDS011;21768;48.562;13.414;2024-02-26T05:26:21;22.95;;;4.50;;
35648;SDS011;21768;48.562;13.414;2024-02-26T05:28:47;27.02;;;4.97;;
35648;SDS011;21768;48.562;13.414;2024-02-26T05:31:13;60.00;;;5.13;;
35648;SDS011;21768;48.562;13.414;2024-02-26T05:33:40;32.92;;;5.25;;
35648;SDS011;21768;48.562;13.414;2024-02-26T05:36:06;27.55;;;5.22;;
35648;SDS011;21768;48.562;13.414;2024-02-26T05:38:32;26.98;;;5.13;;
35648;SDS011;21768;48.562;13.414;2024-02-26T05:40:58;35.15;;;5.00;;
35648;SDS011;21768;48.562;13.414;2024-02-26T05:43:27;34.30;;;5.32;;
35648;SDS011;21768;48.562;13.414;2024-02-26T05:45:53;55.35;;;5.38;;
35648;SDS011;21768;48.562;13.414;2024-02-26T05:48:19;81.93;;;5.25;;
35648;SDS011;21768;48.562;13.414;2024-02-26T05:50:45;39.50;;;4.95;;
35648;SDS011;21768;48.562;13.414;2024-02-26T05:53:11;36.17;;;5.13;;
35648;SDS011;21768;48.562;13.414;2024-02-26T05:55:37;73.30;;;5.05;;
35648;SDS011;21768;48.562;13.414;2024-02-26T05:58:03;40.72;;;5.15;;
35648;SDS011;21768;48.562;13.414;2024-02-26T06:00:29;25.25;;;4.88;;
35648;SDS011;21768;48.562;13.414;2024-02-26T06:02:55;27.42;;;4.75;;
35648;SDS011;21768;48.562;13.414;2024-02-26T06:05:21;30.55;;;5.95;;
35648;SDS011;21768;48.562;13.414;2024-02-26T06:07:48;42.97;;;5.10;;
35648;SDS011;21768;48.562;13.414;2024-02-26T06:10:14;51.70;;;5.57;;
35648;SDS011;21768;48.562;13.414;2024-02-26T06:12:40;34.72;;;5.30;;
35648;SDS011;21768;48.562;13.414;2024-02-26T06:15:08;20.10;;;4.82;;
35648;SDS011;21768;48.562;13.414;2024-02-26T06:17:34;35.30;;;5.40;;
35648;SDS011;21768;48.562;13.414;2024-02-26T06:20:00;30.10;;;4.47;;
35648;SDS011;21768;48.562;13.414;2024-02-26T06:22:26;19.70;;;3.97;;
35648;SDS011;21768;48.562;13.414;2024-02-26T06:24:52;11.65;;;4.28;;
35648;SDS011;21768;48.562;13.414;2024-02-26T06:27:17;9.65;;;4.68;;
35648;SDS011;21768;48.562;13.414;2024-02-26T06:29:43;11.27;;;4.40;;
35648;SDS011;21768;48.562;13.414;2024-02-26T06:32:09;23.58;;;6.57;;
35648;SDS011;21768;48.562;13.414;2024-02-26T06:34:35;9.05;;;4.97;;
35648;SDS011;21768;48.562;13.414;2024-02-26T06:37:01;13.10;;;4.30;;
35648;SDS011;21768;48.562;13.414;2024-02-26T06:39:28;7.50;;;3.95;;
35648;SDS011;21768;48.562;13.414;2024-02-26T06:41:54;8.40;;;3.70;;
35648;SDS011;21768;48.562;13.414;2024-02-26T06:44:26;6.50;;;4.00;;
35648;SDS011;21768;48.562;13.414;2024-02-26T06:46:57;10.43;;;5.72;;
35648;SDS011;21768;48.562;13.414;2024-02-26T06:49:26;23.27;;;12.07;;
35648;SDS011;21768;48.562;13.414;2024-02-26T06:51:52;36.75;;;18.40;;
35648;SDS011;21768;48.562;13.414;2024-02-26T06:54:18;19.92;;;7.45;;
35648;SDS011;21768;48.562;13.414;2024-02-26T06:56:48;44.55;;;18.80;;
35648;SDS011;21768;48.562;13.414;2024-02-26T06:59:13;16.27;;;7.82;;
35648;SDS011;21768;48.562;13.414;2024-02-26T07:01:41;9.32;;;4.82;;
35648;SDS011;21768;48.562;13.414;2024-02-26T07:04:07;8.27;;;4.38;;
35648;SDS011;21768;48.562;13.414;2024-02-26T07:06:32;10.25;;;4.65;;
35648;SDS011;21768;48.562;13.414;2024-02-26T07:08:58;14.02;;;4.85;;
35648;SDS011;21768;48.562;13.414;2024-02-26T07:11:24;10.18;;;3.75;;
35648;SDS011;21768;48.562;13.414;2024-02-26T07:13:50;6.50;;;3.42;;
35648;SDS011;21768;48.562;13.414;2024-02-26T07:16:16;7.63;;;4.25;;
35648;SDS011;21768;48.562;13.414;2024-02-26T07:18:42;9.60;;;4.60;;
35648;SDS011;21768;48.562;13.414;2024-02-26T07:21:15;8.70;;;4.80;;
35648;SDS011;21768;48.562;13.414;2024-02-26T07:23:59;10.10;;;4.88;;
35648;SDS011;21768;48.562;13.414;2024-02-26T07:26:30;7.40;;;4.20;;
35648;SDS011;21768;48.562;13.414;2024-02-26T07:28:56;8.98;;;4.50;;
35648;SDS011;21768;48.562;13.414;2024-02-26T07:31:22;8.15;;;4.70;;
35648;SDS011;21768;48.562;13.414;2024-02-26T07:33:48;5.72;;;3.28;;
35648;SDS011;21768;48.562;13.414;2024-02-26T07:36:13;9.68;;;5.55;;
35648;SDS011;21768;48.562;13.414;2024-02-26T07:38:39;8.23;;;5.03;;
35648;SDS011;21768;48.562;13.414;2024-02-26T07:41:05;8.95;;;5.32;;
35648;SDS011;21768;48.562;13.414;2024-02-26T07:43:30;11.45;;;5.82;;
35648;SDS011;21768;48.562;13.414;2024-02-26T07:45:56;11.48;;;6.78;;
35648;SDS011;21768;48.562;13.414;2024-02-26T07:48:23;13.15;;;6.57;;
35648;SDS011;21768;48.562;13.414;2024-02-26T07:50:49;44.72;;;20.65;;
35648;SDS011;21768;48.562;13.414;2024-02-26T07:53:14;14.13;;;6.85;;
35648;SDS011;21768;48.562;13.414;2024-02-26T07:55:40;9.43;;;5.10;;
35648;SDS011;21768;48.562;13.414;2024-02-26T07:58:06;6.05;;;4.15;;
35648;SDS011;21768;48.562;13.414;2024-02-26T08:00:32;9.32;;;5.00;;
35648;SDS011;21768;48.562;13.414;2024-02-26T08:03:00;10.30;;;4.55;;
35648;SDS011;21768;48.562;13.414;2024-02-26T08:05:26;10.00;;;5.45;;
35648;SDS011;21768;48.562;13.414;2024-02-26T08:07:51;9.43;;;4.82;;
35648;SDS011;21768;48.562;13.414;2024-02-26T08:10:17;11.25;;;6.03;;
35648;SDS011;21768;48.562;13.414;2024-02-26T08:12:42;8.60;;;5.40;;
35648;SDS011;21768;48.562;13.414;2024-02-26T08:15:08;7.85;;;4.28;;
35648;SDS011;21768;48.562;13.414;2024-02-26T08:17:33;6.13;;;3.88;;
35648;SDS011;21768;48.562;13.414;2024-02-26T08:19:59;7.93;;;4.25;;
35648;SDS011;21768;48.562;13.414;2024-02-26T08:22:25;8.95;;;4.07;;
35648;SDS011;21768;48.562;13.414;2024-02-26T08:24:51;8.05;;;4.60;;
35648;SDS011;21768;48.562;13.414;2024-02-26T08:27:16;8.57;;;4.55;;
35648;SDS011;21768;48.562;13.414;2024-02-26T08:29:42;8.13;;;4.43;;
35648;SDS011;21768;48.562;13.414;2024-02-26T08:32:08;7.88;;;4.30;;
35648;SDS011;21768;48.562;13.414;2024-02-26T08:34:33;11.23;;;4.93;;
35648;SDS011;21768;48.562;13.414;2024-02-26T08:36:59;10.63;;;4.72;;
35648;SDS011;21768;48.562;13.414;2024-02-26T08:39:24;7.22;;;5.13;;
35648;SDS011;21768;48.562;13.414;2024-02-26T08:41:51;7.93;;;4.75;;
35648;SDS011;21768;48.562;13.414;2024-02-26T08:44:16;7.97;;;4.93;;
35648;SDS011;21768;48.562;13.414;2024-02-26T08:46:42;8.82;;;4.80;;
35648;SDS011;21768;48.562;13.414;2024-02-26T08:49:07;8.18;;;4.93;;
35648;SDS011;21768;48.562;13.414;2024-02-26T08:51:32;11.20;;;5.47;;
35648;SDS011;21768;48.562;13.414;2024-02-26T08:53:58;10.43;;;4.93;;
35648;SDS011;21768;48.562;13.414;2024-02-26T08:56:23;10.25;;;5.10;;
35648;SDS011;21768;48.562;13.414;2024-02-26T08:58:49;10.10;;;5.50;;
35648;SDS011;21768;48.562;13.414;2024-02-26T09:01:16;10.85;;;4.75;;
35648;SDS011;21768;48.562;13.414;2024-02-26T09:03:41;8.57;;;4.60;;
35648;SDS011;21768;48.562;13.414;2024-02-26T09:06:07;8.57;;;4.82;;
35648;SDS011;21768;48.562;13.414;2024-02-26T09:08:32;9.18;;;5.05;;
35648;SDS011;21768;48.562;13.414;2024-02-26T09:10:58;8.18;;;5.03;;
35648;SDS011;21768;48.562;13.414;2024-02-26T09:13:24;13.65;;;8.32;;
35648;SDS011;21768;48.562;13.414;2024-02-26T09:15:49;22.42;;;14.85;;
35648;SDS011;21768;48.562;13.414;2024-02-26T09:18:15;9.73;;;5.55;;
35648;SDS011;21768;48.562;13.414;2024-02-26T09:20:41;6.80;;;4.20;;
35648;SDS011;21768;48.562;13.414;2024-02-26T09:23:10;8.75;;;3.47;;
35648;SDS011;21768;48.562;13.414;2024-02-26T09:25:36;6.20;;;4.00;;
35648;SDS011;21768;48.562;13.414;2024-02-26T09:28:01;8.10;;;3.65;;
35648;SDS011;21768;48.562;13.414;2024-02-26T09:30:27;5.35;;;3.55;;
35648;SDS011;21768;48.562;13.414;2024-02-26T09:32:52;9.10;;;3.92;;
35648;SDS011;21768;48.562;13.414;2024-02-26T09:35:18;5.63;;;3.65;;
35648;SDS011;21768;48.562;13.414;2024-02-26T09:37:44;7.05;;;4.13;;
35648;SDS011;21768;48.562;13.414;2024-02-26T09:40:10;6.13;;;3.75;;
35648;SDS011;21768;48.562;13.414;2024-02-26T09:42:36;6.75;;;3.70;;
35648;SDS011;21768;48.562;13.414;2024-02-26T09:45:03;6.35;;;3.90;;
35648;SDS011;21768;48.562;13.414;2024-02-26T09:47:32;12.10;;;3.80;;
35648;SDS011;21768;48.562;13.414;2024-02-26T09:50:00;5.60;;;3.42;;
35648;SDS011;21768;48.562;13.414;2024-02-26T09:52:28;7.10;;;3.78;;
35648;SDS011;21768;48.562;13.414;2024-02-26T09:54:53;18.63;;;7.25;;
35648;SDS011;21768;48.562;13.414;2024-02-26T09:57:19;31.05;;;10.15;;
35648;SDS011;21768;48.562;13.414;2024-02-26T09:59:49;26.30;;;10.60;;
35648;SDS011;21768;48.562;13.414;2024-02-26T10:02:18;15.15;;;5.43;;
35648;SDS011;21768;48.562;13.414;2024-02-26T10:04:46;16.70;;;6.70;;
35648;SDS011;21768;48.562;13.414;2024-02-26T10:07:14;18.67;;;7.30;;
35648;SDS011;21768;48.562;13.414;2024-02-26T10:09:40;93.68;;;30.35;;
35648;SDS011;21768;48.562;13.414;2024-02-26T10:12:06;27.67;;;7.78;;
35648;SDS011;21768;48.562;13.414;2024-02-26T10:14:35;120.32;;;38.13;;
35648;SDS011;21768;48.562;13.414;2024-02-26T10:17:01;16.50;;;5.68;;
35648;SDS011;21768;48.562;13.414;2024-02-26T10:19:27;13.13;;;6.18;;
35648;SDS011;21768;48.562;13.414;2024-02-26T10:21:58;10.32;;;4.82;;
35648;SDS011;21768;48.562;13.414;2024-02-26T10:24:25;8.27;;;3.97;;
35648;SDS011;21768;48.562;13.414;2024-02-26T10:26:52;7.38;;;4.13;;
35648;SDS011;21768;48.562;13.414;2024-02-26T10:29:18;8.95;;;4.13;;
35648;SDS011;21768;48.562;13.414;2024-02-26T10:31:44;9.82;;;3.97;;
35648;SDS011;21768;48.562;13.414;2024-02-26T10:34:10;6.05;;;3.50;;
35648;SDS011;21768;48.562;13.414;2024-02-26T10:36:36;8.10;;;3.35;;
35648;SDS011;21768;48.562;13.414;2024-02-26T10:39:02;7.60;;;4.72;;
35648;SDS011;21768;48.562;13.414;2024-02-26T10:41:30;8.82;;;5.20;;
35648;SDS011;21768;48.562;13.414;2024-02-26T10:43:55;9.48;;;6.03;;
35648;SDS011;21768;48.562;13.414;2024-02-26T10:46:23;9.20;;;5.57;;
35648;SDS011;21768;48.562;13.414;2024-02-26T10:48:50;9.20;;;3.92;;
35648;SDS011;21768;48.562;13.414;2024-02-26T10:51:17;8.75;;;3.50;;
35648;SDS011;21768;48.562;13.414;2024-02-26T10:53:50;5.50;;;2.90;;
35648;SDS011;21768;48.562;13.414;2024-02-26T10:56:21;4.78;;;2.90;;
35648;SDS011;21768;48.562;13.414;2024-02-26T10:58:52;5.05;;;3.05;;
35648;SDS011;21768;48.562;13.414;2024-02-26T11:01:18;9.38;;;5.30;;
35648;SDS011;21768;48.562;13.414;2024-02-26T11:03:47;8.27;;;4.70;;
35648;SDS011;21768;48.562;13.414;2024-02-26T11:06:15;7.78;;;4.45;;
35648;SDS011;21768;48.562;13.414;2024-02-26T11:08:42;7.22;;;3.53;;
35648;SDS011;21768;48.562;13.414;2024-02-26T11:11:09;5.95;;;3.97;;
35648;SDS011;21768;48.562;13.414;2024-02-26T11:13:40;6.75;;;3.58;;
35648;SDS011;21768;48.562;13.414;2024-02-26T11:16:10;8.18;;;3.65;;
35648;SDS011;21768;48.562;13.414;2024-02-26T11:18:37;9.63;;;3.83;;
35648;SDS011;21768;48.562;13.414;2024-02-26T11:21:06;7.20;;;3.20;;
35648;SDS011;21768;48.562;13.414;2024-02-26T11:23:34;4.75;;;3.05;;
35648;SDS011;21768;48.562;13.414;2024-02-26T11:26:02;6.38;;;3.70;;
35648;SDS011;21768;48.562;13.414;2024-02-26T11:28:31;7.63;;;3.75;;
35648;SDS011;21768;48.562;13.414;2024-02-26T11:30:59;7.15;;;3.88;;
35648;SDS011;21768;48.562;13.414;2024-02-26T11:33:32;20.30;;;9.05;;
35648;SDS011;21768;48.562;13.414;2024-02-26T11:36:19;9.23;;;3.25;;
35648;SDS011;21768;48.562;13.414;2024-02-26T11:38:45;10.05;;;4.22;;
35648;SDS011;21768;48.562;13.414;2024-02-26T11:41:14;11.20;;;3.97;;
35648;SDS011;21768;48.562;13.414;2024-02-26T11:44:24;9.45;;;4.30;;
35648;SDS011;21768;48.562;13.414;2024-02-26T11:46:41;6.95;;;3.70;;
35648;SDS011;21768;48.562;13.414;2024-02-26T11:51:52;13.20;;;5.53;;
35648;SDS011;21768;48.562;13.414;2024-02-26T11:57:03;11.65;;;7.57;;
35648;SDS011;21768;48.562;13.414;2024-02-26T11:59:38;4.85;;;2.70;;
35648;SDS011;21768;48.562;13.414;2024-02-26T12:02:06;5.47;;;3.55;;
35648;SDS011;21768;48.562;13.414;2024-02-26T12:04:33;8.57;;;4.70;;
35648;SDS011;21768;48.562;13.414;2024-02-26T12:07:04;5.95;;;3.40;;
35648;SDS011;21768;48.562;13.414;2024-02-26T12:09:34;8.10;;;3.22;;
35648;SDS011;21768;48.562;13.414;2024-02-26T12:12:04;5.82;;;3.38;;
35648;SDS011;21768;48.562;13.414;2024-02-26T12:14:37;5.03;;;3.03;;
35648;SDS011;21768;48.562;13.414;2024-02-26T12:17:19;6.97;;;3.20;;
35648;SDS011;21768;48.562;13.414;2024-02-26T12:19:49;6.38;;;3.20;;
35648;SDS011;21768;48.562;13.414;2024-02-26T12:22:16;6.82;;;3.72;;
35648;SDS011;21768;48.562;13.414;2024-02-26T12:24:42;8.50;;;3.97;;
35648;SDS011;21768;48.562;13.414;2024-02-26T12:27:08;5.68;;;3.13;;
35648;SDS011;21768;48.562;13.414;2024-02-26T12:29:34;4.00;;;2.30;;
35648;SDS011;21768;48.562;13.414;2024-02-26T12:32:00;5.10;;;2.28;;
35648;SDS011;21768;48.562;13.414;2024-02-26T12:34:26;4.90;;;1.90;;
35648;SDS011;21768;48.562;13.414;2024-02-26T12:36:53;6.78;;;1.90;;
35648;SDS011;21768;48.562;13.414;2024-02-26T12:39:19;3.35;;;1.80;;
35648;SDS011;21768;48.562;13.414;2024-02-26T12:41:45;5.32;;;2.03;;
35648;SDS011;21768;48.562;13.414;2024-02-26T12:44:15;3.38;;;1.90;;
35648;SDS011;21768;48.562;13.414;2024-02-26T12:46:41;3.70;;;2.00;;
35648;SDS011;21768;48.562;13.414;2024-02-26T12:49:07;3.05;;;1.75;;
35648;SDS011;21768;48.562;13.414;2024-02-26T12:51:33;5.72;;;1.60;;
35648;SDS011;21768;48.562;13.414;2024-02-26T12:53:58;4.13;;;1.63;;
35648;SDS011;21768;48.562;13.414;2024-02-26T12:56:24;4.32;;;1.70;;
35648;SDS011;21768;48.562;13.414;2024-02-26T12:58:52;3.30;;;1.75;;
35648;SDS011;21768;48.562;13.414;2024-02-26T13:01:19;2.97;;;1.85;;
35648;SDS011;21768;48.562;13.414;2024-02-26T13:03:49;3.08;;;1.65;;
35648;SDS011;21768;48.562;13.414;2024-02-26T13:06:17;4.85;;;1.98;;
35648;SDS011;21768;48.562;13.414;2024-02-26T13:08:44;2.53;;;1.52;;
35648;SDS011;21768;48.562;13.414;2024-02-26T13:11:13;5.88;;;1.77;;
35648;SDS011;21768;48.562;13.414;2024-02-26T13:13:40;4.53;;;1.65;;
35648;SDS011;21768;48.562;13.414;2024-02-26T13:16:07;5.15;;;1.70;;
35648;SDS011;21768;48.562;13.414;2024-02-26T13:18:35;6.75;;;1.70;;
35648;SDS011;21768;48.562;13.414;2024-02-26T13:21:14;5.22;;;1.70;;
35648;SDS011;21768;48.562;13.414;2024-02-26T13:23:41;5.88;;;2.22;;
35648;SDS011;21768;48.562;13.414;2024-02-26T13:26:07;4.55;;;2.03;;
35648;SDS011;21768;48.562;13.414;2024-02-26T13:28:34;3.40;;;1.60;;
35648;SDS011;21768;48.562;13.414;2024-02-26T13:31:00;5.45;;;1.60;;
35648;SDS011;21768;48.562;13.414;2024-02-26T13:33:29;3.50;;;1.50;;
35648;SDS011;21768;48.562;13.414;2024-02-26T13:35:55;2.60;;;2.00;;
35648;SDS011;21768;48.562;13.414;2024-02-26T13:38:22;3.70;;;1.52;;
35648;SDS011;21768;48.562;13.414;2024-02-26T13:40:49;1.40;;;1.00;;
35648;SDS011;21768;48.562;13.414;2024-02-26T13:43:15;2.92;;;1.13;;
35648;SDS011;21768;48.562;13.414;2024-02-26T13:45:43;1.95;;;1.00;;
35648;SDS011;21768;48.562;13.414;2024-02-26T13:48:09;1.70;;;1.10;;
35648;SDS011;21768;48.562;13.414;2024-02-26T13:50:36;1.20;;;1.10;;
35648;SDS011;21768;48.562;13.414;2024-02-26T13:53:03;2.45;;;1.00;;
35648;SDS011;21768;48.562;13.414;2024-02-26T13:55:29;1.73;;;1.30;;
35648;SDS011;21768;48.562;13.414;2024-02-26T13:57:57;2.63;;;1.08;;
35648;SDS011;21768;48.562;13.414;2024-02-26T14:00:23;3.22;;;1.40;;
35648;SDS011;21768;48.562;13.414;2024-02-26T14:02:52;2.28;;;1.20;;
35648;SDS011;21768;48.562;13.414;2024-02-26T14:05:17;1.98;;;1.15;;
35648;SDS011;21768;48.562;13.414;2024-02-26T14:07:43;2.60;;;1.20;;
35648;SDS011;21768;48.562;13.414;2024-02-26T14:10:09;4.43;;;2.30;;
35648;SDS011;21768;48.562;13.414;2024-02-26T14:12:37;2.97;;;1.70;;
35648;SDS011;21768;48.562;13.414;2024-02-26T14:15:03;2.15;;;1.42;;
35648;SDS011;21768;48.562;13.414;2024-02-26T14:17:30;1.75;;;1.10;;
35648;SDS011;21768;48.562;13.414;2024-02-26T14:19:56;2.60;;;1.50;;
35648;SDS011;21768;48.562;13.414;2024-02-26T14:22:21;3.92;;;1.30;;
35648;SDS011;21768;48.562;13.414;2024-02-26T14:24:47;1.98;;;1.30;;
35648;SDS011;21768;48.562;13.414;2024-02-26T14:27:13;3.28;;;1.42;;
35648;SDS011;21768;48.562;13.414;2024-02-26T14:29:41;1.30;;;1.00;;